createdAt,value
2019-05-25T00:01:52.185Z,5.40
2019-05-25T00:04:20.835Z,6.12
2019-05-25T00:06:49.465Z,5.97
2019-05-25T00:09:18.027Z,7.10
2019-05-25T00:11:46.702Z,6.10
2019-05-25T00:14:16.891Z,5.97
2019-05-25T00:16:45.477Z,5.58
2019-05-25T00:19:14.007Z,5.05
2019-05-25T00:21:42.578Z,5.80
2019-05-25T00:24:12.552Z,5.12
2019-05-25T00:26:41.505Z,5.15
2019-05-25T00:29:10.054Z,4.85
2019-05-25T00:31:38.627Z,4.12
2019-05-25T00:34:07.467Z,4.92
2019-05-25T00:36:36.008Z,4.75
2019-05-25T00:39:06.775Z,4.60
2019-05-25T00:41:35.990Z,4.45
2019-05-25T00:44:05.036Z,4.42
2019-05-25T00:46:33.566Z,4.45
2019-05-25T00:49:02.809Z,4.92
2019-05-25T00:51:31.487Z,4.40
2019-05-25T00:54:00.020Z,4.95
2019-05-25T00:56:28.584Z,5.05
2019-05-25T00:58:57.401Z,4.70
2019-05-25T01:01:25.998Z,5.55
2019-05-25T01:03:54.484Z,5.12
2019-05-25T01:06:23.033Z,5.33
2019-05-25T01:08:51.600Z,5.60
2019-05-25T01:11:39.759Z,5.58
2019-05-25T01:14:08.333Z,5.25
2019-05-25T01:16:38.873Z,5.25
2019-05-25T01:19:07.389Z,5.35
2019-05-25T01:21:37.172Z,5.47
2019-05-25T01:24:05.839Z,4.97
2019-05-25T01:26:34.386Z,5.70
2019-05-25T01:29:03.015Z,5.28
2019-05-25T01:31:31.559Z,5.10
2019-05-25T01:34:00.208Z,5.20
2019-05-25T01:36:29.080Z,5.37
2019-05-25T01:38:57.607Z,6.03
2019-05-25T01:41:26.177Z,5.78
2019-05-25T01:43:54.778Z,5.95
2019-05-25T01:46:23.351Z,6.10
2019-05-25T01:48:52.397Z,6.90
2019-05-25T01:51:21.004Z,6.55
2019-05-25T01:53:49.802Z,6.67
2019-05-25T01:56:18.347Z,7.00
2019-05-25T01:58:46.922Z,6.72
2019-05-25T02:01:15.470Z,7.42
2019-05-25T02:03:44.017Z,7.62
2019-05-25T02:06:12.582Z,7.00
2019-05-25T02:08:41.140Z,7.22
2019-05-25T02:11:09.702Z,7.03
2019-05-25T02:13:38.258Z,6.92
2019-05-25T02:16:06.940Z,6.40
2019-05-25T02:18:35.515Z,5.53
2019-05-25T02:21:04.150Z,5.62
2019-05-25T02:23:32.687Z,5.25
2019-05-25T02:26:01.195Z,5.92
2019-05-25T02:28:29.727Z,5.12
2019-05-25T02:30:58.506Z,5.25
2019-05-25T02:33:27.149Z,5.62
2019-05-25T02:35:56.875Z,6.28
2019-05-25T02:38:25.526Z,5.53
2019-05-25T02:40:54.361Z,5.53
2019-05-25T02:43:22.884Z,6.75
2019-05-25T02:45:51.464Z,6.45
2019-05-25T02:48:20.012Z,6.47
2019-05-25T02:50:48.710Z,7.08
2019-05-25T02:53:17.256Z,6.55
2019-05-25T02:55:45.807Z,6.83
2019-05-25T02:58:14.438Z,6.53
2019-05-25T03:00:43.350Z,6.72
2019-05-25T03:03:11.995Z,6.17
2019-05-25T03:05:41.334Z,5.97
2019-05-25T03:08:09.839Z,6.10
2019-05-25T03:10:59.261Z,5.87
2019-05-25T03:13:30.885Z,4.87
2019-05-25T03:15:59.591Z,4.95
2019-05-25T03:18:28.216Z,5.97
2019-05-25T03:20:56.758Z,5.15
2019-05-25T03:23:25.230Z,5.58
2019-05-25T03:25:53.809Z,5.55
2019-05-25T03:28:22.281Z,6.80
2019-05-25T03:30:50.920Z,5.15
2019-05-25T03:33:19.476Z,5.03
2019-05-25T03:35:48.091Z,5.00
2019-05-25T03:38:16.668Z,5.20
2019-05-25T03:40:45.201Z,5.90
2019-05-25T03:43:14.030Z,6.37
2019-05-25T03:45:42.878Z,5.92
2019-05-25T03:48:11.488Z,7.03
2019-05-25T03:50:40.162Z,6.58
2019-05-25T03:53:08.732Z,5.97
2019-05-25T03:55:37.271Z,5.50
2019-05-25T03:58:06.762Z,5.30
2019-05-25T04:00:55.000Z,5.70
2019-05-25T04:03:23.891Z,5.65
2019-05-25T04:05:52.538Z,4.90
2019-05-25T04:08:21.464Z,5.30
2019-05-25T04:10:50.095Z,5.55
2019-05-25T04:13:18.664Z,5.53
2019-05-25T04:15:47.276Z,5.85
2019-05-25T04:18:15.845Z,6.90
2019-05-25T04:20:44.688Z,6.17
2019-05-25T04:23:13.575Z,6.58
2019-05-25T04:25:42.080Z,6.12
2019-05-25T04:28:10.621Z,6.62
2019-05-25T04:30:39.191Z,6.03
2019-05-25T04:33:07.735Z,5.75
2019-05-25T04:35:36.348Z,5.78
2019-05-25T04:38:05.007Z,5.80
2019-05-25T04:40:33.549Z,5.90
2019-05-25T04:43:02.096Z,5.85
2019-05-25T04:45:30.667Z,6.12
2019-05-25T04:47:59.213Z,6.08
2019-05-25T04:50:27.780Z,5.67
2019-05-25T04:52:56.503Z,5.87
2019-05-25T04:55:25.138Z,6.10
2019-05-25T04:57:53.694Z,5.78
2019-05-25T05:00:22.212Z,6.62
2019-05-25T05:02:50.744Z,6.03
2019-05-25T05:05:19.587Z,5.67
2019-05-25T05:07:48.478Z,6.15
2019-05-25T05:10:17.370Z,5.65
2019-05-25T05:12:45.958Z,6.50
2019-05-25T05:15:14.739Z,5.87
2019-05-25T05:17:43.627Z,6.30
2019-05-25T05:20:13.739Z,6.00
2019-05-25T05:22:43.254Z,6.15
2019-05-25T05:25:12.398Z,5.45
2019-05-25T05:27:41.059Z,6.05
2019-05-25T05:30:09.961Z,5.50
2019-05-25T05:32:38.915Z,5.12
2019-05-25T05:35:09.038Z,5.25
2019-05-25T05:37:37.845Z,5.33
2019-05-25T05:40:07.972Z,4.83
2019-05-25T05:42:57.359Z,4.53
2019-05-25T05:45:46.759Z,4.42
2019-05-25T05:48:17.427Z,4.92
2019-05-25T05:50:48.414Z,5.15
2019-05-25T05:53:19.163Z,4.90
2019-05-25T05:55:47.731Z,5.10
2019-05-25T05:58:16.293Z,5.25
2019-05-25T06:00:45.140Z,5.60
2019-05-25T06:03:13.685Z,5.95
2019-05-25T06:05:42.278Z,7.28
2019-05-25T06:08:10.929Z,6.58
2019-05-25T06:10:39.555Z,6.90
2019-05-25T06:13:08.153Z,8.38
2019-05-25T06:15:36.723Z,8.43
2019-05-25T06:18:05.387Z,8.03
2019-05-25T06:20:34.211Z,7.20
2019-05-25T06:23:02.774Z,7.50
2019-05-25T06:25:32.156Z,7.50
2019-05-25T06:28:00.739Z,7.33
2019-05-25T06:30:29.280Z,6.80
2019-05-25T06:32:57.861Z,6.60
2019-05-25T06:35:26.791Z,6.30
2019-05-25T06:37:55.430Z,6.78
2019-05-25T06:40:24.418Z,6.17
2019-05-25T06:42:52.959Z,6.58
2019-05-25T06:45:22.089Z,6.05
2019-05-25T06:47:50.703Z,5.90
2019-05-25T06:50:19.633Z,6.03
2019-05-25T06:52:48.205Z,5.92
2019-05-25T06:55:16.831Z,5.37
2019-05-25T06:57:45.447Z,6.50
2019-05-25T07:00:15.815Z,5.90
2019-05-25T07:02:44.287Z,5.92
2019-05-25T07:05:13.162Z,5.30
2019-05-25T07:07:41.995Z,5.35
2019-05-25T07:10:10.786Z,4.72
2019-05-25T07:12:39.366Z,4.53
2019-05-25T07:15:09.947Z,4.35
2019-05-25T07:17:38.567Z,4.20
2019-05-25T07:20:08.271Z,4.50
2019-05-25T07:22:36.822Z,4.83
2019-05-25T07:25:07.155Z,4.50
2019-05-25T07:27:36.610Z,4.72
2019-05-25T07:30:07.407Z,4.65
2019-05-25T07:32:36.150Z,4.80
2019-05-25T07:35:08.443Z,4.67
2019-05-25T07:37:37.050Z,3.85
2019-05-25T07:40:07.656Z,4.40
2019-05-25T07:42:36.200Z,3.17
2019-05-25T07:45:28.557Z,4.22
2019-05-25T07:47:57.153Z,3.90
2019-05-25T07:50:25.687Z,3.50
2019-05-25T07:52:54.412Z,4.12
2019-05-25T07:55:23.158Z,3.60
2019-05-25T07:57:51.725Z,3.80
2019-05-25T08:00:21.882Z,3.90
2019-05-25T08:02:50.423Z,3.60
2019-05-25T08:05:19.067Z,3.60
2019-05-25T08:07:47.771Z,3.72
2019-05-25T08:10:18.777Z,3.33
2019-05-25T08:12:47.327Z,4.60
2019-05-25T08:15:16.058Z,4.35
2019-05-25T08:17:44.917Z,4.20
2019-05-25T08:20:14.401Z,4.10
2019-05-25T08:22:42.983Z,4.08
2019-05-25T08:25:11.847Z,3.72
2019-05-25T08:27:40.415Z,4.50
2019-05-25T08:30:09.600Z,4.17
2019-05-25T08:32:38.151Z,4.03
2019-05-25T08:35:10.176Z,4.60
2019-05-25T08:37:38.716Z,4.53
2019-05-25T08:40:07.791Z,4.70
2019-05-25T08:42:36.435Z,4.47
2019-05-25T08:45:07.087Z,4.90
2019-05-25T08:47:35.651Z,4.83
2019-05-25T08:50:07.920Z,5.03
2019-05-25T08:52:37.305Z,4.55
2019-05-25T08:55:26.715Z,4.92
2019-05-25T08:57:55.279Z,5.20
2019-05-25T09:00:23.940Z,5.00
2019-05-25T09:02:52.522Z,4.95
2019-05-25T09:05:21.067Z,5.15
2019-05-25T09:07:49.610Z,4.85
2019-05-25T09:10:18.417Z,5.10
2019-05-25T09:12:47.029Z,5.08
2019-05-25T09:15:15.807Z,5.85
2019-05-25T09:17:44.389Z,5.28
2019-05-25T09:20:13.269Z,4.97
2019-05-25T09:22:41.907Z,4.87
2019-05-25T09:25:10.715Z,5.37
2019-05-25T09:27:39.279Z,5.20
2019-05-25T09:30:09.202Z,5.55
2019-05-25T09:32:37.895Z,5.90
2019-05-25T09:35:09.626Z,5.17
2019-05-25T09:37:38.573Z,4.67
2019-05-25T09:40:08.493Z,5.03
2019-05-25T09:42:37.130Z,4.80
2019-05-25T09:45:08.278Z,4.60
2019-05-25T09:47:36.842Z,5.12
2019-05-25T09:50:09.141Z,5.20
2019-05-25T09:52:37.702Z,5.15
2019-05-25T09:55:08.233Z,4.40
2019-05-25T09:57:36.791Z,4.80
2019-05-25T10:00:14.835Z,4.40
2019-05-25T10:02:44.034Z,4.72
2019-05-25T10:05:13.875Z,3.80
2019-05-25T10:07:42.894Z,4.15
2019-05-25T10:10:12.293Z,3.70
2019-05-25T10:12:40.847Z,3.55
2019-05-25T10:15:09.950Z,3.58
2019-05-25T10:17:42.386Z,3.08
2019-05-25T10:20:11.662Z,3.47
2019-05-25T10:22:40.153Z,3.30
2019-05-25T10:25:10.187Z,3.00
2019-05-25T10:27:39.008Z,3.15
2019-05-25T10:30:09.707Z,3.30
2019-05-25T10:32:38.622Z,2.55
2019-05-25T10:35:10.571Z,2.45
2019-05-25T10:37:39.122Z,3.00
2019-05-25T10:40:08.514Z,3.02
2019-05-25T10:42:37.138Z,2.90
2019-05-25T10:45:09.666Z,3.60
2019-05-25T10:47:38.375Z,2.65
2019-05-25T10:50:08.828Z,2.65
2019-05-25T10:52:37.458Z,2.80
2019-05-25T10:55:08.069Z,2.40
2019-05-25T10:57:36.974Z,3.47
2019-05-25T11:00:07.891Z,3.08
2019-05-25T11:02:36.505Z,2.52
2019-05-25T11:05:09.143Z,2.72
2019-05-25T11:07:37.760Z,2.70
2019-05-25T11:10:08.577Z,2.90
2019-05-25T11:12:37.146Z,2.80
2019-05-25T11:15:26.498Z,2.67
2019-05-25T11:17:55.053Z,2.50
2019-05-25T11:20:42.935Z,2.70
2019-05-25T11:23:11.927Z,2.77
2019-05-25T11:25:40.554Z,2.90
2019-05-25T11:28:09.109Z,2.83
2019-05-25T11:30:37.683Z,2.72
2019-05-25T11:33:06.212Z,3.08
2019-05-25T11:35:34.896Z,3.02
2019-05-25T11:38:03.834Z,2.60
2019-05-25T11:40:32.368Z,2.37
2019-05-25T11:43:00.902Z,2.80
2019-05-25T11:45:29.460Z,3.12
2019-05-25T11:47:58.076Z,3.80
2019-05-25T11:50:26.628Z,3.12
2019-05-25T11:52:55.310Z,3.20
2019-05-25T11:55:24.050Z,3.05
2019-05-25T11:57:52.687Z,2.85
2019-05-25T12:00:25.365Z,2.90
2019-05-25T12:02:52.927Z,2.70
2019-05-25T12:05:21.927Z,2.70
2019-05-25T12:07:50.462Z,2.80
2019-05-25T12:10:20.252Z,2.52
2019-05-25T12:12:48.892Z,2.45
2019-05-25T12:15:18.678Z,2.60
2019-05-25T12:17:47.213Z,2.80
2019-05-25T12:20:16.523Z,2.67
2019-05-25T12:22:45.123Z,2.92
2019-05-25T12:25:14.097Z,3.12
2019-05-25T12:27:42.690Z,2.95
2019-05-25T12:30:11.780Z,2.70
2019-05-25T12:32:40.355Z,2.98
2019-05-25T12:35:09.668Z,5.92
2019-05-25T12:37:38.211Z,3.25
2019-05-25T12:40:08.021Z,3.20
2019-05-25T12:42:36.649Z,3.05
2019-05-25T12:45:06.454Z,3.35
2019-05-25T12:47:35.070Z,3.35
2019-05-25T12:50:05.467Z,3.05
2019-05-25T12:52:34.097Z,2.98
2019-05-25T12:55:02.730Z,3.37
2019-05-25T12:57:31.487Z,3.37
2019-05-25T13:00:14.220Z,2.55
2019-05-25T13:02:30.254Z,2.70
2019-05-25T13:04:58.862Z,2.92
2019-05-25T13:07:27.659Z,2.60
2019-05-25T13:09:56.309Z,2.67
2019-05-25T13:12:24.856Z,2.12
2019-05-25T13:14:53.491Z,2.80
2019-05-25T13:17:22.124Z,2.33
2019-05-25T13:19:50.786Z,2.40
2019-05-25T13:22:19.670Z,2.00
2019-05-25T13:24:48.244Z,2.35
2019-05-25T13:27:16.889Z,2.20
2019-05-25T13:29:45.734Z,2.40
2019-05-25T13:32:14.365Z,2.17
2019-05-25T13:34:44.666Z,2.70
2019-05-25T13:37:13.763Z,1.98
2019-05-25T13:39:42.336Z,2.30
2019-05-25T13:42:11.201Z,2.20
2019-05-25T13:44:39.776Z,1.90
2019-05-25T13:47:08.679Z,2.27
2019-05-25T13:49:37.236Z,1.98
2019-05-25T13:52:05.786Z,1.98
2019-05-25T13:54:34.427Z,2.40
2019-05-25T13:57:03.034Z,2.27
2019-05-25T13:59:31.638Z,2.17
2019-05-25T14:02:00.167Z,1.90
2019-05-25T14:04:28.705Z,2.00
2019-05-25T14:06:57.278Z,2.10
2019-05-25T14:09:25.746Z,2.12
2019-05-25T14:11:54.605Z,1.75
2019-05-25T14:14:24.526Z,2.15
2019-05-25T14:16:53.815Z,2.10
2019-05-25T14:19:22.435Z,2.20
2019-05-25T14:21:51.205Z,2.33
2019-05-25T14:24:19.777Z,2.62
2019-05-25T14:26:48.342Z,2.40
2019-05-25T14:29:16.996Z,2.22
2019-05-25T14:31:46.414Z,2.58
2019-05-25T14:34:16.183Z,2.30
2019-05-25T14:36:44.813Z,2.15
2019-05-25T14:39:13.369Z,2.02
2019-05-25T14:41:42.027Z,2.02
2019-05-25T14:44:10.656Z,2.25
2019-05-25T14:46:39.227Z,2.20
2019-05-25T14:49:07.911Z,2.60
2019-05-25T14:51:36.456Z,2.20
2019-05-25T14:54:05.187Z,2.40
2019-05-25T14:56:33.890Z,2.65
2019-05-25T14:59:02.435Z,2.65
2019-05-25T15:01:31.899Z,2.20
2019-05-25T15:04:00.503Z,2.65
2019-05-25T15:06:29.362Z,2.50
2019-05-25T15:08:58.080Z,2.87
2019-05-25T15:11:26.613Z,2.25
2019-05-25T15:13:55.187Z,2.52
2019-05-25T15:16:23.840Z,3.80
2019-05-25T15:18:53.805Z,3.27
2019-05-25T15:21:22.633Z,2.67
2019-05-25T15:23:51.194Z,2.60
2019-05-25T15:26:19.735Z,3.08
2019-05-25T15:28:48.306Z,2.90
2019-05-25T15:31:16.822Z,2.60
2019-05-25T15:33:45.379Z,2.50
2019-05-25T15:36:13.923Z,2.77
2019-05-25T15:38:42.510Z,2.40
2019-05-25T15:41:11.184Z,2.35
2019-05-25T15:43:40.161Z,2.70
2019-05-25T15:46:08.822Z,2.58
2019-05-25T15:48:37.355Z,2.80
2019-05-25T15:51:05.962Z,2.65
2019-05-25T15:53:34.894Z,2.35
2019-05-25T15:56:03.439Z,2.72
2019-05-25T15:58:32.070Z,2.65
2019-05-25T16:01:00.858Z,3.58
2019-05-25T16:03:29.467Z,4.95
2019-05-25T16:05:58.138Z,2.60
2019-05-25T16:08:27.139Z,2.87
2019-05-25T16:10:55.679Z,2.45
2019-05-25T16:13:24.404Z,3.00
2019-05-25T16:15:52.959Z,3.25
2019-05-25T16:18:21.586Z,2.90
2019-05-25T16:20:50.209Z,3.20
2019-05-25T16:23:18.840Z,2.77
2019-05-25T16:25:47.421Z,8.13
2019-05-25T16:28:15.964Z,2.70
2019-05-25T16:30:45.880Z,2.35
2019-05-25T16:33:15.107Z,2.30
2019-05-25T16:35:43.827Z,2.47
2019-05-25T16:38:12.533Z,2.67
2019-05-25T16:40:41.550Z,2.85
2019-05-25T16:43:10.172Z,2.87
2019-05-25T16:45:39.132Z,3.12
2019-05-25T16:48:07.798Z,2.80
2019-05-25T16:50:36.491Z,2.62
2019-05-25T16:53:05.162Z,2.58
2019-05-25T16:55:33.702Z,2.77
2019-05-25T16:58:02.307Z,3.10
2019-05-25T17:00:30.923Z,2.40
2019-05-25T17:02:59.912Z,2.80
2019-05-25T17:05:29.262Z,2.52
2019-05-25T17:07:58.087Z,2.90
2019-05-25T17:10:27.833Z,3.20
2019-05-25T17:12:56.601Z,2.40
2019-05-25T17:15:28.136Z,2.60
2019-05-25T17:17:56.683Z,2.25
2019-05-25T17:20:25.362Z,2.80
2019-05-25T17:22:53.902Z,2.60
2019-05-25T17:25:22.579Z,2.30
2019-05-25T17:27:51.115Z,2.65
2019-05-25T17:30:22.816Z,2.72
2019-05-25T17:32:51.735Z,2.60
2019-05-25T17:35:20.346Z,2.80
2019-05-25T17:37:48.964Z,2.62
2019-05-25T17:40:17.458Z,2.62
2019-05-25T17:42:46.307Z,2.50
2019-05-25T17:45:15.111Z,2.92
2019-05-25T17:47:43.669Z,2.85
2019-05-25T17:50:12.562Z,2.45
2019-05-25T17:52:41.147Z,2.72
2019-05-25T17:55:10.917Z,3.20
2019-05-25T17:57:39.530Z,2.90
2019-05-25T18:00:09.941Z,2.75
2019-05-25T18:02:38.668Z,2.30
2019-05-25T18:05:08.740Z,2.67
2019-05-25T18:07:37.463Z,2.22
2019-05-25T18:10:10.567Z,2.15
2019-05-25T18:12:39.393Z,4.85
2019-05-25T18:15:12.279Z,3.92
2019-05-25T18:17:40.839Z,3.33
2019-05-25T18:20:11.207Z,2.50
2019-05-25T18:22:39.949Z,2.77
2019-05-25T18:25:09.648Z,2.80
2019-05-25T18:27:38.205Z,2.55
2019-05-25T18:30:08.908Z,2.22
2019-05-25T18:32:37.448Z,2.42
2019-05-25T18:35:09.559Z,2.20
2019-05-25T18:37:38.148Z,2.37
2019-05-25T18:40:08.480Z,2.20
2019-05-25T18:42:37.122Z,2.83
2019-05-25T18:45:07.495Z,2.40
2019-05-25T18:47:57.962Z,2.27
2019-05-25T18:50:26.914Z,2.33
2019-05-25T18:52:55.455Z,2.87
2019-05-25T18:55:24.519Z,2.00
2019-05-25T18:57:53.370Z,2.30
2019-05-25T19:00:22.337Z,2.50
2019-05-25T19:02:51.191Z,1.85
2019-05-25T19:05:20.642Z,2.10
2019-05-25T19:07:49.213Z,2.22
2019-05-25T19:10:26.614Z,2.00
2019-05-25T19:15:23.012Z,3.65
2019-05-25T19:17:51.584Z,3.70
2019-05-25T19:20:21.424Z,3.83
2019-05-25T19:22:50.269Z,3.90
2019-05-25T19:25:19.442Z,4.35
2019-05-25T19:27:48.103Z,3.85
2019-05-25T19:30:18.698Z,4.25
2019-05-25T19:32:47.721Z,5.45
2019-05-25T19:35:17.104Z,5.65
2019-05-25T19:37:47.036Z,4.47
2019-05-25T19:40:16.136Z,4.15
2019-05-25T19:42:52.881Z,3.17
2019-05-25T19:45:21.735Z,3.15
2019-05-25T19:47:50.562Z,2.90
2019-05-25T19:50:19.984Z,2.92
2019-05-25T19:52:49.357Z,2.40
2019-05-25T19:55:20.400Z,2.90
2019-05-25T19:58:08.731Z,2.70
2019-05-25T20:00:39.081Z,2.90
2019-05-25T20:03:08.172Z,4.75
2019-05-25T20:05:36.843Z,5.12
2019-05-25T20:08:05.950Z,4.08
2019-05-25T20:10:35.256Z,4.08
2019-05-25T20:13:04.912Z,3.70
2019-05-25T20:15:33.915Z,3.27
2019-05-25T20:18:03.063Z,3.25
2019-05-25T20:20:31.718Z,3.05
2019-05-25T20:23:00.332Z,3.60
2019-05-25T20:25:48.270Z,4.08
2019-05-25T20:28:18.558Z,4.12
2019-05-25T20:30:47.425Z,3.35
2019-05-25T20:33:26.896Z,3.25
2019-05-25T20:35:47.017Z,3.30
2019-05-25T20:38:16.051Z,3.83
2019-05-25T20:40:44.938Z,4.25
2019-05-25T20:43:14.364Z,3.70
2019-05-25T20:45:43.164Z,4.45
2019-05-25T20:48:13.320Z,4.40
2019-05-25T20:50:42.242Z,3.85
2019-05-25T20:53:11.167Z,3.20
2019-05-25T20:55:40.331Z,3.67
2019-05-25T20:58:08.847Z,3.50
2019-05-25T21:00:37.393Z,3.75
2019-05-25T21:03:06.961Z,4.58
2019-05-25T21:05:48.943Z,4.17
2019-05-25T21:08:05.964Z,3.98
2019-05-25T21:10:34.592Z,4.10
2019-05-25T21:13:03.191Z,3.90
2019-05-25T21:15:33.478Z,3.75
2019-05-25T21:18:02.319Z,3.98
2019-05-25T21:20:31.020Z,4.22
2019-05-25T21:22:59.713Z,3.65
2019-05-25T21:25:28.354Z,3.95
2019-05-25T21:27:56.948Z,3.60
2019-05-25T21:30:25.583Z,3.85
2019-05-25T21:32:54.123Z,4.30
2019-05-25T21:35:22.697Z,4.20
2019-05-25T21:37:51.255Z,3.80
2019-05-25T21:40:19.936Z,3.87
2019-05-25T21:42:48.504Z,4.20
2019-05-25T21:45:17.851Z,3.72
2019-05-25T21:47:46.395Z,3.98
2019-05-25T21:50:15.571Z,3.75
2019-05-25T21:52:44.096Z,3.58
2019-05-25T21:55:12.935Z,3.85
2019-05-25T21:57:41.484Z,4.22
2019-05-25T22:00:32.565Z,3.65
2019-05-25T22:03:01.272Z,3.65
2019-05-25T22:05:30.946Z,3.50
2019-05-25T22:08:00.089Z,3.60
2019-05-25T22:10:28.778Z,3.45
2019-05-25T22:12:57.332Z,4.10
2019-05-25T22:15:25.988Z,4.20
2019-05-25T22:17:54.656Z,4.42
2019-05-25T22:20:23.234Z,3.95
2019-05-25T22:22:51.778Z,5.08
2019-05-25T22:25:20.443Z,4.97
2019-05-25T22:27:49.006Z,4.47
2019-05-25T22:30:18.650Z,4.35
2019-05-25T22:32:47.200Z,4.40
2019-05-25T22:35:16.003Z,4.72
2019-05-25T22:37:44.578Z,4.80
2019-05-25T22:40:13.363Z,4.40
2019-05-25T22:42:41.935Z,4.35
2019-05-25T22:45:11.748Z,4.30
2019-05-25T22:47:40.585Z,3.92
2019-05-25T22:50:09.779Z,4.35
2019-05-25T22:52:38.324Z,3.60
2019-05-25T22:55:08.026Z,4.58
2019-05-25T22:57:36.638Z,4.37
2019-05-25T23:00:26.060Z,3.87
2019-05-25T23:02:54.666Z,4.62
2019-05-25T23:05:23.203Z,4.45
2019-05-25T23:07:51.836Z,4.20
2019-05-25T23:10:20.510Z,4.90
2019-05-25T23:12:49.071Z,4.53
2019-05-25T23:15:18.165Z,4.25
2019-05-25T23:17:46.759Z,4.78
2019-05-25T23:20:15.467Z,4.20
2019-05-25T23:22:44.012Z,4.83
2019-05-25T23:25:12.674Z,4.85
2019-05-25T23:27:41.260Z,4.37
2019-05-25T23:30:10.426Z,4.90
2019-05-25T23:32:38.960Z,4.80
2019-05-25T23:35:07.689Z,4.45
2019-05-25T23:37:36.207Z,5.00
2019-05-25T23:40:08.596Z,5.20
2019-05-25T23:42:37.142Z,4.65
2019-05-25T23:45:07.665Z,4.55
2019-05-25T23:47:36.447Z,4.90
2019-05-25T23:50:07.893Z,5.53
2019-05-25T23:52:36.509Z,5.10
2019-05-25T23:55:08.643Z,5.10
2019-05-25T23:57:37.202Z,5.33
